Time,TemperatureF,DewpointF,PressureIn,WindDirection,WindDirectionDegrees,WindSpeedMPH,WindSpeedGustMPH,Humidity,HourlyPrecipIn,Conditions,Clouds,dailyrainin,SoftwareType,DateUTC
2013-11-08 00:06:00,39.5,33.0,30.14,WNW,295,0.0,0.0,77,0.00,,,0.00,weatherlink.com 1.10,2013-11-08 05:06:00,
2013-11-08 00:21:00,40.6,33.0,30.14,NW,306,0.0,0.0,73,0.00,,,0.00,weatherlink.com 1.10,2013-11-08 05:21:00,
2013-11-08 00:36:00,39.8,33.0,30.14,NW,306,0.0,0.0,76,0.00,,,0.00,weatherlink.com 1.10,2013-11-08 05:36:00,
2013-11-08 00:51:00,38.8,32.0,30.15,NW,306,0.0,0.0,77,0.00,,,0.00,weatherlink.com 1.10,2013-11-08 05:51:00,
2013-11-08 01:06:00,39.0,32.0,30.15,NW,306,0.0,0.0,75,0.00,,,0.00,weatherlink.com 1.10,2013-11-08 06:06:00,
2013-11-08 01:21:00,39.4,31.0,30.16,NW,306,0.0,0.0,73,0.00,,,0.00,weatherlink.com 1.10,2013-11-08 06:21:00,
2013-11-08 01:36:00,37.5,31.0,30.16,NW,306,0.0,0.0,78,0.00,,,0.00,weatherlink.com 1.10,2013-11-08 06:36:00,
2013-11-08 01:51:00,37.1,31.0,30.16,NW,306,0.0,0.0,78,0.00,,,0.00,weatherlink.com 1.10,2013-11-08 06:51:00,
2013-11-08 02:06:00,36.8,31.0,30.16,NW,306,0.0,0.0,79,0.00,,,0.00,weatherlink.com 1.10,2013-11-08 07:06:00,
2013-11-08 02:21:00,36.6,31.0,30.16,NW,306,0.0,0.0,79,0.00,,,0.00,weatherlink.com 1.10,2013-11-08 07:21:00,
2013-11-08 02:36:00,35.9,30.0,30.17,NW,306,0.0,0.0,80,0.00,,,0.00,weatherlink.com 1.10,2013-11-08 07:36:00,
2013-11-08 02:51:00,34.6,30.0,30.17,NW,306,0.0,0.0,84,0.00,,,0.00,weatherlink.com 1.10,2013-11-08 07:51:00,
2013-11-08 03:06:00,34.4,29.0,30.18,NW,306,0.0,0.0,82,0.00,,,0.00,weatherlink.com 1.10,2013-11-08 08:06:00,
2013-11-08 03:21:00,34.7,29.0,30.18,NW,306,0.0,0.0,79,0.00,,,0.00,weatherlink.com 1.10,2013-11-08 08:21:00,
2013-11-08 03:36:00,34.5,30.0,30.18,NW,306,0.0,0.0,84,0.00,,,0.00,weatherlink.com 1.10,2013-11-08 08:36:00,
2013-11-08 03:51:00,34.8,29.0,30.19,WNW,292,0.0,0.0,78,0.00,,,0.00,weatherlink.com 1.10,2013-11-08 08:51:00,
2013-11-08 04:06:00,36.6,28.0,30.19,WNW,296,0.0,0.0,72,0.00,,,0.00,weatherlink.com 1.10,2013-11-08 09:06:00,
2013-11-08 04:21:00,36.3,29.0,30.20,WNW,302,0.0,0.0,74,0.00,,,0.00,weatherlink.com 1.10,2013-11-08 09:21:00,
2013-11-08 04:36:00,35.1,28.0,30.20,WNW,302,0.0,0.0,76,0.00,,,0.00,weatherlink.com 1.10,2013-11-08 09:36:00,
2013-11-08 04:51:00,33.8,30.0,30.21,WNW,302,0.0,0.0,84,0.00,,,0.00,weatherlink.com 1.10,2013-11-08 09:51:00,
2013-11-08 05:06:00,32.9,29.0,30.21,WNW,302,0.0,0.0,84,0.00,,,0.00,weatherlink.com 1.10,2013-11-08 10:06:00,
2013-11-08 05:22:00,31.9,29.0,30.22,WNW,302,0.0,0.0,88,0.00,,,0.00,weatherlink.com 1.10,2013-11-08 10:22:00,
2013-11-08 05:37:00,31.9,28.0,30.22,WNW,302,0.0,0.0,86,0.00,,,0.00,weatherlink.com 1.10,2013-11-08 10:37:00,
2013-11-08 05:52:00,33.6,27.0,30.23,NW,309,0.0,0.0,77,0.00,,,0.00,weatherlink.com 1.10,2013-11-08 10:52:00,
2013-11-08 06:07:00,35.6,27.0,30.24,NW,309,0.0,0.0,71,0.00,,,0.00,weatherlink.com 1.10,2013-11-08 11:07:00,
2013-11-08 06:22:00,36.5,28.0,30.24,NW,309,0.0,0.0,71,0.00,,,0.00,weatherlink.com 1.10,2013-11-08 11:22:00,
2013-11-08 06:37:00,34.0,28.0,30.25,NW,309,0.0,0.0,79,0.00,,,0.00,weatherlink.com 1.10,2013-11-08 11:37:00,
2013-11-08 06:52:00,32.4,28.0,30.25,NW,309,0.0,0.0,85,0.00,,,0.00,weatherlink.com 1.10,2013-11-08 11:52:00,
2013-11-08 07:07:00,31.6,28.0,30.26,NW,309,0.0,0.0,87,0.00,,,0.00,weatherlink.com 1.10,2013-11-08 12:07:00,
2013-11-08 07:22:00,31.1,28.0,30.26,NW,309,0.0,0.0,89,0.00,,,0.00,weatherlink.com 1.10,2013-11-08 12:22:00,
2013-11-08 07:37:00,31.5,29.0,30.27,NW,309,0.0,0.0,89,0.00,,,0.00,weatherlink.com 1.10,2013-11-08 12:37:00,
2013-11-08 07:52:00,33.3,30.0,30.28,NW,309,0.0,0.0,89,0.00,,,0.00,weatherlink.com 1.10,2013-11-08 12:52:00,
2013-11-08 08:07:00,36.5,31.0,30.28,NW,309,0.0,0.0,81,0.00,,,0.00,weatherlink.com 1.10,2013-11-08 13:07:00,
2013-11-08 08:22:00,40.0,32.0,30.28,West,273,0.0,0.0,72,0.00,,,0.00,weatherlink.com 1.10,2013-11-08 13:22:00,
2013-11-08 08:52:00,44.6,30.0,30.29,West,260,0.0,0.0,56,0.00,,,0.00,weatherlink.com 1.10,2013-11-08 13:52:00,
2013-11-08 09:07:00,45.6,31.0,30.29,NW,309,0.0,0.0,56,0.00,,,0.00,weatherlink.com 1.10,2013-11-08 14:07:00,
2013-11-08 09:22:00,46.2,29.0,30.30,WSW,254,0.0,0.0,52,0.00,,,0.00,weatherlink.com 1.10,2013-11-08 14:22:00,
2013-11-08 09:37:00,46.8,30.0,30.30,WSW,251,0.0,0.0,53,0.00,,,0.00,weatherlink.com 1.10,2013-11-08 14:37:00,
2013-11-08 09:52:00,47.2,29.0,30.30,NW,321,0.0,0.0,50,0.00,,,0.00,weatherlink.com 1.10,2013-11-08 14:52:00,
2013-11-08 10:07:00,48.3,29.0,30.30,NNW,338,0.0,0.0,48,0.00,,,0.00,weatherlink.com 1.10,2013-11-08 15:07:00,
2013-11-08 10:22:00,48.8,30.0,30.30,SSW,198,0.0,0.0,48,0.00,,,0.00,weatherlink.com 1.10,2013-11-08 15:22:00,
2013-11-08 10:37:00,49.2,28.0,30.30,West,275,0.0,0.0,44,0.00,,,0.00,weatherlink.com 1.10,2013-11-08 15:37:00,
2013-11-08 10:53:00,49.9,29.0,30.29,North,355,0.0,0.0,45,0.00,,,0.00,weatherlink.com 1.10,2013-11-08 15:53:00,
2013-11-08 11:07:00,50.5,28.0,30.30,NNW,331,0.0,0.0,42,0.00,,,0.00,weatherlink.com 1.10,2013-11-08 16:07:00,
2013-11-08 11:22:00,51.4,28.0,30.30,WSW,246,0.0,0.0,40,0.00,,,0.00,weatherlink.com 1.10,2013-11-08 16:22:00,
2013-11-08 11:37:00,51.7,28.0,30.30,SW,223,0.0,0.0,40,0.00,,,0.00,weatherlink.com 1.10,2013-11-08 16:37:00,
2013-11-08 11:52:00,53.0,26.0,30.28,East,85,0.0,0.0,35,0.00,,,0.00,weatherlink.com 1.10,2013-11-08 16:52:00,
2013-11-08 12:07:00,53.7,27.0,30.28,South,173,0.0,0.0,36,0.00,,,0.00,weatherlink.com 1.10,2013-11-08 17:07:00,
2013-11-08 12:22:00,54.0,27.0,30.27,WNW,284,0.0,0.0,36,0.00,,,0.00,weatherlink.com 1.10,2013-11-08 17:22:00,
2013-11-08 12:37:00,54.1,26.0,30.26,West,269,0.0,0.0,34,0.00,,,0.00,weatherlink.com 1.10,2013-11-08 17:37:00,
2013-11-08 12:53:00,54.5,24.0,30.25,SW,234,0.0,0.0,31,0.00,,,0.00,weatherlink.com 1.10,2013-11-08 17:53:00,
2013-11-08 13:08:00,55.5,24.0,30.24,SW,215,0.0,0.0,29,0.00,,,0.00,weatherlink.com 1.10,2013-11-08 18:08:00,
2013-11-08 13:23:00,56.2,22.0,30.23,SSE,159,0.0,0.0,27,0.00,,,0.00,weatherlink.com 1.10,2013-11-08 18:23:00,
2013-11-08 13:38:00,57.2,22.0,30.23,WNW,300,0.0,0.0,25,0.00,,,0.00,weatherlink.com 1.10,2013-11-08 18:38:00,
2013-11-08 13:53:00,57.2,22.0,30.23,WNW,288,0.0,0.0,25,0.00,,,0.00,weatherlink.com 1.10,2013-11-08 18:53:00,
2013-11-08 14:08:00,57.1,20.0,30.23,SE,136,0.0,0.0,24,0.00,,,0.00,weatherlink.com 1.10,2013-11-08 19:08:00,
2013-11-08 14:23:00,57.8,21.0,30.23,SSE,154,0.0,0.0,24,0.00,,,0.00,weatherlink.com 1.10,2013-11-08 19:23:00,
2013-11-08 14:38:00,58.1,22.0,30.22,WSW,245,0.0,0.0,25,0.00,,,0.00,weatherlink.com 1.10,2013-11-08 19:38:00,
2013-11-08 14:53:00,58.0,20.0,30.23,West,269,0.0,0.0,23,0.00,,,0.00,weatherlink.com 1.10,2013-11-08 19:53:00,
2013-11-08 15:08:00,58.6,23.0,30.22,SW,232,0.0,0.0,25,0.00,,,0.00,weatherlink.com 1.10,2013-11-08 20:08:00,
2013-11-08 15:23:00,58.7,21.0,30.22,SE,135,0.0,0.0,23,0.00,,,0.00,weatherlink.com 1.10,2013-11-08 20:23:00,
2013-11-08 15:38:00,59.3,22.0,30.22,North,355,0.0,0.0,24,0.00,,,0.00,weatherlink.com 1.10,2013-11-08 20:38:00,
2013-11-08 15:53:00,59.3,22.0,30.22,North,11,0.0,0.0,24,0.00,,,0.00,weatherlink.com 1.10,2013-11-08 20:53:00,
2013-11-08 16:08:00,59.5,22.0,30.22,North,355,0.0,0.0,24,0.00,,,0.00,weatherlink.com 1.10,2013-11-08 21:08:00,
2013-11-08 16:23:00,59.0,21.0,30.22,NNE,33,0.0,0.0,23,0.00,,,0.00,weatherlink.com 1.10,2013-11-08 21:23:00,
2013-11-08 16:38:00,58.7,22.0,30.22,WNW,299,0.0,0.0,24,0.00,,,0.00,weatherlink.com 1.10,2013-11-08 21:38:00,
2013-11-08 16:53:00,58.5,21.0,30.23,NW,306,0.0,0.0,23,0.00,,,0.00,weatherlink.com 1.10,2013-11-08 21:53:00,
2013-11-08 17:08:00,56.3,21.0,30.23,NNE,19,0.0,0.0,25,0.00,,,0.00,weatherlink.com 1.10,2013-11-08 22:08:00,
2013-11-08 17:23:00,54.2,22.0,30.23,NE,35,0.0,0.0,29,0.00,,,0.00,weatherlink.com 1.10,2013-11-08 22:23:00,
2013-11-08 17:38:00,50.9,31.0,30.23,NE,35,0.0,0.0,46,0.00,,,0.00,weatherlink.com 1.10,2013-11-08 22:38:00,
2013-11-08 17:53:00,46.9,31.0,30.24,NE,35,0.0,0.0,54,0.00,,,0.00,weatherlink.com 1.10,2013-11-08 22:53:00,
2013-11-08 18:08:00,43.9,30.0,30.25,NE,35,0.0,0.0,59,0.00,,,0.00,weatherlink.com 1.10,2013-11-08 23:08:00,
2013-11-08 18:23:00,41.9,30.0,30.25,NE,35,0.0,0.0,64,0.00,,,0.00,weatherlink.com 1.10,2013-11-08 23:23:00,
2013-11-08 18:38:00,40.5,29.0,30.25,NE,35,0.0,0.0,65,0.00,,,0.00,weatherlink.com 1.10,2013-11-08 23:38:00,
2013-11-08 18:53:00,40.2,30.0,30.25,NE,35,0.0,0.0,66,0.00,,,0.00,weatherlink.com 1.10,2013-11-08 23:53:00,
2013-11-08 19:08:00,39.5,29.0,30.26,NE,35,0.0,0.0,67,0.00,,,0.00,weatherlink.com 1.10,2013-11-09 00:08:00,
2013-11-08 19:23:00,38.8,30.0,30.27,NE,35,0.0,0.0,70,0.00,,,0.00,weatherlink.com 1.10,2013-11-09 00:23:00,
2013-11-08 19:38:00,37.6,29.0,30.27,NE,35,0.0,0.0,72,0.00,,,0.00,weatherlink.com 1.10,2013-11-09 00:38:00,
2013-11-08 19:53:00,37.0,29.0,30.27,NE,35,0.0,0.0,74,0.00,,,0.00,weatherlink.com 1.10,2013-11-09 00:53:00,
2013-11-08 20:08:00,36.9,29.0,30.27,NE,35,0.0,0.0,74,0.00,,,0.00,weatherlink.com 1.10,2013-11-09 01:08:00,
2013-11-08 20:23:00,36.4,30.0,30.28,NE,35,0.0,0.0,76,0.00,,,0.00,weatherlink.com 1.10,2013-11-09 01:23:00,
2013-11-08 20:38:00,36.1,30.0,30.28,NE,35,0.0,0.0,77,0.00,,,0.00,weatherlink.com 1.10,2013-11-09 01:38:00,
2013-11-08 20:53:00,36.2,29.0,30.29,NE,35,0.0,0.0,76,0.00,,,0.00,weatherlink.com 1.10,2013-11-09 01:53:00,
2013-11-08 21:08:00,35.6,30.0,30.30,NE,35,0.0,0.0,80,0.00,,,0.00,weatherlink.com 1.10,2013-11-09 02:08:00,
2013-11-08 21:23:00,34.8,30.0,30.30,NE,35,0.0,0.0,81,0.00,,,0.00,weatherlink.com 1.10,2013-11-09 02:23:00,
2013-11-08 21:38:00,34.8,29.0,30.30,NE,35,0.0,0.0,79,0.00,,,0.00,weatherlink.com 1.10,2013-11-09 02:38:00,
2013-11-08 21:53:00,34.5,30.0,30.30,NE,35,0.0,0.0,82,0.00,,,0.00,weatherlink.com 1.10,2013-11-09 02:53:00,
2013-11-08 22:08:00,34.2,29.0,30.31,NE,35,0.0,0.0,82,0.00,,,0.00,weatherlink.com 1.10,2013-11-09 03:08:00,
2013-11-08 22:24:00,33.4,29.0,30.31,NE,35,0.0,0.0,83,0.00,,,0.00,weatherlink.com 1.10,2013-11-09 03:24:00,
2013-11-08 22:39:00,32.7,29.0,30.31,NE,35,0.0,0.0,85,0.00,,,0.00,weatherlink.com 1.10,2013-11-09 03:39:00,
2013-11-08 22:55:00,32.3,29.0,30.31,NE,35,0.0,0.0,87,0.00,,,0.00,weatherlink.com 1.10,2013-11-09 03:55:00,
2013-11-08 23:09:00,32.1,29.0,30.31,NE,35,0.0,0.0,87,0.00,,,0.00,weatherlink.com 1.10,2013-11-09 04:09:00,
2013-11-08 23:24:00,32.0,29.0,30.31,NE,35,0.0,0.0,87,0.00,,,0.00,weatherlink.com 1.10,2013-11-09 04:24:00,
2013-11-08 23:39:00,31.2,28.0,30.31,NE,35,0.0,0.0,87,0.00,,,0.00,weatherlink.com 1.10,2013-11-09 04:39:00,
2013-11-08 23:54:00,30.5,28.0,30.32,NE,35,0.0,0.0,89,0.00,,,0.00,weatherlink.com 1.10,2013-11-09 04:54:00,